Corona Emblem — 3FHF8 — position and weather

sailwx.info

Track history (hours):
 
Tides and Currents Weather Stations Pressure Air Temp Water Temp Dewpoint Dewpoint Depression Visibility Wind Speed Wind Dir Waves Ship Positions

Corona Emblem

Last reported at 2014-Jul-23 15:25 UTC. Time now 2014-Jul-25 23:06 UTC.
Position N 34°36' E 139°46'.

Length 230 m; beam 36 m.

Type: Cargo ship. MMSI: 354224000.

Date/timePositionNaut miles runAvg speedWind from/ knotsBaromVisibWave heightAir tempDewpointWater temp
2014-Jul-23 15:25N 34°36' E 139°46'1012.0
2014-Jul-23 14:33N 34°46' E 139°41'1212.0
2014-Jul-23 13:33N 34°57' E 139°39'1212.3
2014-Jul-23 12:33N 35°09' E 139°45'1010.0
2014-Jul-23 11:33N 35°19' E 139°44'1111.4
2014-Jul-23 10:33N 35°29' E 139°50'8 7.7
2014-Jul-23 09:33N 35°32' E 139°59'0 0.1
2014-Jul-23 08:34N 35°32' E 139°59'0 0.0
2014-Jul-23 07:34N 35°32' E 139°59'0 0.0
2014-Jul-23 06:27N 35°32' E 139°59'0 0.1
2014-Jul-23 05:33N 35°32' E 139°59'3 2.7
2014-Jul-23 04:33N 35°31' E 139°56'1312.8
2014-Jul-23 03:33N 35°22' E 139°45'1111.4
2014-Jul-23 02:33N 35°10' E 139°47'1111.2
2014-Jul-23 01:33N 34°60' E 139°42'1110.9
2014-Jul-23 00:33N 34°50' E 139°48'1211.6
2014-Jul-22 23:33N 34°51' E 140°02'1110.6
2014-Jul-22 22:33N 34°53' E 140°15'1010.2
2014-Jul-22 21:33N 34°54' E 140°27'12 9.2
2014-Jul-22 20:12N 34°57' E 140°42'6 8.9
2014-Jul-22 19:33N 34°58' E 140°49'17 7.9
2014-Jul-22 17:24N 35°04' E 141°09'8 9.6
2014-Jul-22 16:31N 35°12' E 141°12'1010.8
2014-Jul-22 15:33N 35°22' E 141°14'1212.2
2014-Jul-22 14:33N 35°34' E 141°16'1312.6
2014-Jul-22 13:33N 35°47' E 141°17'1312.6
2014-Jul-22 12:33N 35°59' E 141°21'1313.3
2014-Jul-22 11:32N 36°12' E 141°23'1512.9
2014-Jul-22 10:25N 36°27' E 141°25'  
2014-Jul-16 04:23N 36°60' E 141°31'3811.9
2014-Jul-16 01:13N 36°23' E 141°25'812.4
2014-Jul-16 00:33N 36°15' E 141°23'1212.0
2014-Jul-15 23:33N 36°03' E 141°20'1211.8
2014-Jul-15 22:30N 35°51' E 141°17'1111.2
2014-Jul-15 21:33N 35°40' E 141°17'1211.9
2014-Jul-15 20:33N 35°28' E 141°15'1513.3
2014-Jul-15 19:27N 35°14' E 141°13'1713.1
2014-Jul-15 18:09N 34°58' E 141°05'914.6
2014-Jul-15 17:33N 34°54' E 140°55'1814.2
2014-Jul-15 16:15N 34°47' E 140°34'1013.8
2014-Jul-15 15:33N 34°43' E 140°23'1313.0
2014-Jul-15 14:33N 34°38' E 140°09'1313.0
2014-Jul-15 13:33N 34°30' E 139°56'1413.7
2014-Jul-15 12:32N 34°22' E 139°43'1514.8
2014-Jul-15 11:33N 34°15' E 139°27'1312.9
2014-Jul-15 10:31N 34°09' E 139°13'  
Track history (hours):
 
Tides and Currents Weather Stations Pressure Air Temp Water Temp Dewpoint Dewpoint Depression Visibility Wind Speed Wind Dir Waves Ship Positions

Corona Emblem

Last reported at 2014-Jul-23 15:25 UTC. Time now 2014-Jul-25 23:06 UTC.
Position N 34°36' E 139°46'.

Length 230 m; beam 36 m.

Type: Cargo ship. MMSI: 354224000.

Date/timePositionNaut miles runAvg speedWind from/ knotsBaromVisibWave heightAir tempDewpointWater temp
2014-Jul-23 15:25N 34°36' E 139°46'1012.0
2014-Jul-23 14:33N 34°46' E 139°41'1212.0
2014-Jul-23 13:33N 34°57' E 139°39'1212.3
2014-Jul-23 12:33N 35°09' E 139°45'1010.0
2014-Jul-23 11:33N 35°19' E 139°44'1111.4
2014-Jul-23 10:33N 35°29' E 139°50'8 7.7
2014-Jul-23 09:33N 35°32' E 139°59'0 0.1
2014-Jul-23 08:34N 35°32' E 139°59'0 0.0
2014-Jul-23 07:34N 35°32' E 139°59'0 0.0
2014-Jul-23 06:27N 35°32' E 139°59'0 0.1
2014-Jul-23 05:33N 35°32' E 139°59'3 2.7
2014-Jul-23 04:33N 35°31' E 139°56'1312.8
2014-Jul-23 03:33N 35°22' E 139°45'1111.4
2014-Jul-23 02:33N 35°10' E 139°47'1111.2
2014-Jul-23 01:33N 34°60' E 139°42'1110.9
2014-Jul-23 00:33N 34°50' E 139°48'1211.6
2014-Jul-22 23:33N 34°51' E 140°02'1110.6
2014-Jul-22 22:33N 34°53' E 140°15'1010.2
2014-Jul-22 21:33N 34°54' E 140°27'12 9.2
2014-Jul-22 20:12N 34°57' E 140°42'6 8.9
2014-Jul-22 19:33N 34°58' E 140°49'17 7.9
2014-Jul-22 17:24N 35°04' E 141°09'8 9.6
2014-Jul-22 16:31N 35°12' E 141°12'1010.8
2014-Jul-22 15:33N 35°22' E 141°14'1212.2
2014-Jul-22 14:33N 35°34' E 141°16'1312.6
2014-Jul-22 13:33N 35°47' E 141°17'1312.6
2014-Jul-22 12:33N 35°59' E 141°21'1313.3
2014-Jul-22 11:32N 36°12' E 141°23'1512.9
2014-Jul-22 10:25N 36°27' E 141°25'  
2014-Jul-16 04:23N 36°60' E 141°31'3811.9
2014-Jul-16 01:13N 36°23' E 141°25'812.4
2014-Jul-16 00:33N 36°15' E 141°23'1212.0
2014-Jul-15 23:33N 36°03' E 141°20'1211.8
2014-Jul-15 22:30N 35°51' E 141°17'1111.2
2014-Jul-15 21:33N 35°40' E 141°17'1211.9
2014-Jul-15 20:33N 35°28' E 141°15'1513.3
2014-Jul-15 19:27N 35°14' E 141°13'1713.1
2014-Jul-15 18:09N 34°58' E 141°05'914.6
2014-Jul-15 17:33N 34°54' E 140°55'1814.2
2014-Jul-15 16:15N 34°47' E 140°34'1013.8
2014-Jul-15 15:33N 34°43' E 140°23'1313.0
2014-Jul-15 14:33N 34°38' E 140°09'1313.0
2014-Jul-15 13:33N 34°30' E 139°56'1413.7
2014-Jul-15 12:32N 34°22' E 139°43'1514.8
2014-Jul-15 11:33N 34°15' E 139°27'1312.9
2014-Jul-15 10:31N 34°09' E 139°13'  

Dump ship's entire track history